Cranbury, New Jersey
Current Conditions -  °F | °C
As of 8:53 AM on Tuesday 27 Jan 2015 (Local Time) from KTTN Reporting Station
Light Snow Light Snow  
Wind Chill: -10°   Ceiling: 2000
Heat Index: -4°   Visibility: 1.2mi
Dew Point: -7°   Wind: 9mph
Humidity: 84%   Direction: 330°NNW
Pressure: 29.73"   Gusts: NA
Location:  40.32°N, 74.51°W
Report Text: KTTN 271353Z 33008KT 1 1/4SM -SN BR OVC020 M04/M07 A2973 RMK AO2 SLP064 P0000 T10441067
Loading
Personal Weather Stations






























Interactive Weather Map New forecast layout! Learn more

10-Day Weather Forecast

Advertisements
Track Severe Weather on mobile